createdAt,value
2023-05-14T00:00:41.663Z,4.90
2023-05-14T00:03:08.422Z,5.03
2023-05-14T00:05:35.236Z,5.17
2023-05-14T00:08:01.875Z,5.13
2023-05-14T00:10:28.496Z,4.93
2023-05-14T00:12:55.094Z,5.17
2023-05-14T00:15:21.679Z,4.83
2023-05-14T00:17:48.303Z,5.30
2023-05-14T00:20:15.068Z,5.70
2023-05-14T00:22:41.608Z,5.87
2023-05-14T00:25:08.371Z,5.80
2023-05-14T00:27:35.332Z,5.87
2023-05-14T00:30:04.554Z,6.60
2023-05-14T00:32:31.070Z,5.73
2023-05-14T00:34:58.527Z,6.13
2023-05-14T00:37:25.156Z,6.73
2023-05-14T00:39:51.731Z,6.20
2023-05-14T00:42:18.319Z,5.73
2023-05-14T00:44:44.854Z,6.10
2023-05-14T00:47:11.551Z,6.33
2023-05-14T00:49:40.873Z,6.43
2023-05-14T00:52:07.610Z,6.33
2023-05-14T00:54:34.199Z,6.07
2023-05-14T00:57:01.026Z,5.90
2023-05-14T00:59:27.658Z,5.43
2023-05-14T01:01:54.147Z,5.80
2023-05-14T01:04:20.674Z,6.07
2023-05-14T01:06:53.203Z,6.53
2023-05-14T01:09:28.612Z,5.83
2023-05-14T01:11:59.980Z,6.20
2023-05-14T01:14:33.111Z,6.13
2023-05-14T01:16:59.818Z,6.60
2023-05-14T01:19:32.853Z,5.90
2023-05-14T01:21:59.496Z,6.03
2023-05-14T01:24:26.024Z,7.57
2023-05-14T01:26:52.820Z,6.80
2023-05-14T01:29:20.888Z,6.63
2023-05-14T01:31:49.031Z,8.07
2023-05-14T01:34:16.838Z,8.03
2023-05-14T01:36:44.357Z,6.83
2023-05-14T01:39:10.966Z,7.27
2023-05-14T01:41:38.778Z,7.60
2023-05-14T02:19:20.097Z,8.03
2023-05-14T02:21:46.975Z,7.90
2023-05-14T02:24:13.903Z,8.00
2023-05-14T02:26:42.213Z,8.20
2023-05-14T02:29:09.608Z,9.00
2023-05-14T02:31:36.138Z,8.03
2023-05-14T02:34:02.914Z,7.87
2023-05-14T02:36:29.474Z,9.60
2023-05-14T02:38:56.089Z,7.90
2023-05-14T02:41:22.667Z,8.00
2023-05-14T02:43:49.295Z,8.40
2023-05-14T02:46:15.878Z,9.07
2023-05-14T02:48:42.571Z,8.50
2023-05-14T02:51:10.095Z,7.90
2023-05-14T02:53:36.768Z,8.03
2023-05-14T02:56:03.414Z,8.27
2023-05-14T02:58:31.367Z,8.43
2023-05-14T03:00:58.090Z,8.43
2023-05-14T03:03:26.304Z,8.53
2023-05-14T03:05:53.343Z,8.23
2023-05-14T03:08:19.938Z,8.77
2023-05-14T03:10:46.428Z,8.10
2023-05-14T03:13:13.025Z,9.17
2023-05-14T03:15:39.679Z,8.60
2023-05-14T03:18:06.896Z,9.00
2023-05-14T03:20:33.480Z,8.50
2023-05-14T03:23:00.043Z,8.63
2023-05-14T03:25:26.736Z,9.07
2023-05-14T03:27:53.439Z,9.67
2023-05-14T03:30:20.054Z,8.80
2023-05-14T03:32:47.952Z,9.60
2023-05-14T03:35:14.588Z,10.03
2023-05-14T03:37:41.550Z,9.90
2023-05-14T03:40:08.284Z,9.87
2023-05-14T03:42:36.407Z,9.97
2023-05-14T03:45:02.929Z,11.00
2023-05-14T03:47:29.570Z,9.97
2023-05-14T03:49:56.990Z,9.37
2023-05-14T03:52:23.686Z,9.00
2023-05-14T03:54:51.310Z,8.77
2023-05-14T03:57:18.832Z,9.53
2023-05-14T03:59:45.468Z,8.70
2023-05-14T04:02:13.799Z,9.47
2023-05-14T04:04:41.126Z,8.97
2023-05-14T04:07:08.838Z,9.00
2023-05-14T04:09:35.543Z,9.70
2023-05-14T04:12:02.259Z,9.63
2023-05-14T04:14:29.220Z,9.37
2023-05-14T04:16:55.855Z,9.47
2023-05-14T04:19:22.396Z,10.27
2023-05-14T04:21:48.981Z,9.70
2023-05-14T04:24:17.413Z,9.97
2023-05-14T04:26:48.839Z,8.47
2023-05-14T04:29:15.349Z,9.50
2023-05-14T04:31:44.058Z,8.90
2023-05-14T04:34:10.843Z,9.27
2023-05-14T04:36:37.364Z,8.80
2023-05-14T04:39:04.178Z,9.27
2023-05-14T04:41:30.869Z,9.03
2023-05-14T04:43:58.999Z,9.43
2023-05-14T04:46:25.712Z,9.47
2023-05-14T04:48:52.454Z,9.23
2023-05-14T04:51:19.004Z,9.47
2023-05-14T04:53:46.866Z,9.00
2023-05-14T04:56:13.553Z,10.83
2023-05-14T04:58:41.118Z,9.83
2023-05-14T05:01:07.963Z,9.67
2023-05-14T05:03:34.692Z,9.80
2023-05-14T05:06:01.475Z,10.00
2023-05-14T05:08:28.044Z,10.07
2023-05-14T05:10:54.814Z,9.33
2023-05-14T05:13:21.524Z,9.83
2023-05-14T05:15:48.328Z,8.53
2023-05-14T05:18:15.076Z,9.00
2023-05-14T05:20:41.647Z,8.97
2023-05-14T05:23:09.209Z,8.57
2023-05-14T05:25:36.577Z,8.90
2023-05-14T05:28:03.208Z,8.23
2023-05-14T05:30:30.364Z,7.60
2023-05-14T05:32:58.088Z,8.33
2023-05-14T05:35:24.693Z,7.20
2023-05-14T05:37:52.137Z,6.70
2023-05-14T05:40:19.116Z,6.73
2023-05-14T05:42:45.822Z,6.90
2023-05-14T05:45:12.546Z,7.43
2023-05-14T05:47:39.317Z,7.00
2023-05-14T05:50:06.371Z,6.10
2023-05-14T05:52:33.127Z,5.90
2023-05-14T05:54:59.722Z,6.20
2023-05-14T05:57:27.578Z,6.47
2023-05-14T05:59:54.282Z,6.00
2023-05-14T06:02:21.206Z,5.67
2023-05-14T06:04:48.182Z,5.87
2023-05-14T06:07:14.782Z,6.47
2023-05-14T06:09:41.314Z,5.77
2023-05-14T06:12:09.056Z,6.30
2023-05-14T06:14:36.671Z,6.20
2023-05-14T06:17:03.311Z,6.43
2023-05-14T06:19:29.893Z,6.23
2023-05-14T06:21:56.651Z,5.17
2023-05-14T06:24:23.268Z,6.37
2023-05-14T06:26:50.003Z,6.00
2023-05-14T06:29:16.652Z,5.60
2023-05-14T06:31:43.576Z,5.03
2023-05-14T06:34:10.769Z,6.13
2023-05-14T06:36:37.501Z,5.20
2023-05-14T06:39:04.673Z,5.40
2023-05-14T06:41:31.461Z,5.67
2023-05-14T06:43:58.204Z,5.47
2023-05-14T06:46:24.867Z,6.17
2023-05-14T06:48:51.457Z,5.90
2023-05-14T06:51:19.279Z,5.90
2023-05-14T06:53:46.869Z,6.13
2023-05-14T06:56:14.924Z,6.07
2023-05-14T06:58:41.596Z,5.63
2023-05-14T07:01:08.776Z,5.43
2023-05-14T07:03:35.491Z,4.83
2023-05-14T07:06:03.111Z,4.00
2023-05-14T07:08:29.712Z,4.50
2023-05-14T07:10:57.462Z,4.00
2023-05-14T07:13:24.951Z,3.40
2023-05-14T07:15:55.947Z,3.33
2023-05-14T07:18:23.395Z,3.67
2023-05-14T07:20:50.030Z,3.70
2023-05-14T07:23:19.152Z,3.50
2023-05-14T07:25:46.733Z,3.23
2023-05-14T07:28:15.446Z,3.00
2023-05-14T07:30:45.221Z,3.67
2023-05-14T07:33:12.079Z,3.27
2023-05-14T07:35:38.817Z,3.10
2023-05-14T07:38:06.357Z,3.33
2023-05-14T07:40:33.493Z,2.97
2023-05-14T07:43:01.568Z,3.20
2023-05-14T07:45:28.327Z,3.40
2023-05-14T07:47:55.455Z,3.13
2023-05-14T07:50:23.376Z,3.17
2023-05-14T07:52:51.056Z,3.30
2023-05-14T07:55:18.152Z,3.03
2023-05-14T07:57:49.280Z,3.20
2023-05-14T08:00:16.852Z,2.90
2023-05-14T08:02:44.945Z,2.90
2023-05-14T08:05:12.181Z,3.30
2023-05-14T08:07:38.959Z,3.10
2023-05-14T08:10:07.843Z,3.07
2023-05-14T08:12:34.553Z,3.37
2023-05-14T08:15:02.459Z,3.40
2023-05-14T08:17:29.262Z,3.23
2023-05-14T08:19:59.168Z,3.40
2023-05-14T08:22:25.947Z,2.97
2023-05-14T08:24:53.431Z,3.00
2023-05-14T08:27:22.225Z,2.80
2023-05-14T08:29:48.856Z,3.00
2023-05-14T08:32:23.280Z,3.00
2023-05-14T08:34:52.162Z,3.13
2023-05-14T08:37:19.092Z,2.80
2023-05-14T08:39:46.568Z,2.73
2023-05-14T08:42:13.635Z,3.00
2023-05-14T08:44:45.626Z,3.63
2023-05-14T08:47:13.221Z,2.60
2023-05-14T08:49:43.455Z,2.50
2023-05-14T08:52:10.217Z,2.90
2023-05-14T08:54:38.061Z,2.97
2023-05-14T08:57:05.921Z,2.93
2023-05-14T08:59:32.659Z,2.60
2023-05-14T09:02:03.444Z,2.73
2023-05-14T09:04:30.225Z,2.70
2023-05-14T09:06:57.125Z,2.70
2023-05-14T09:09:23.956Z,2.70
2023-05-14T09:11:51.339Z,2.97
2023-05-14T09:14:18.232Z,2.70
2023-05-14T09:16:46.217Z,2.27
2023-05-14T09:19:14.029Z,2.37
2023-05-14T09:21:40.992Z,2.73
2023-05-14T09:24:08.014Z,2.30
2023-05-14T09:26:34.730Z,2.57
2023-05-14T09:29:04.448Z,2.60
2023-05-14T09:31:37.246Z,2.57
2023-05-14T09:34:05.096Z,2.27
2023-05-14T09:36:31.909Z,2.20
2023-05-14T09:38:59.914Z,2.60
2023-05-14T09:41:26.590Z,2.70
2023-05-14T09:43:53.312Z,2.73
2023-05-14T09:46:20.128Z,2.40
2023-05-14T09:48:46.944Z,2.67
2023-05-14T09:51:13.664Z,2.50
2023-05-14T09:53:41.419Z,2.40
2023-05-14T09:56:08.216Z,2.90
2023-05-14T09:58:35.779Z,2.90
2023-05-14T10:01:02.870Z,3.00
2023-05-14T10:03:30.219Z,2.80
2023-05-14T10:05:58.674Z,2.70
2023-05-14T10:08:39.181Z,2.97
2023-05-14T10:11:07.011Z,2.60
2023-05-14T10:13:37.819Z,2.80
2023-05-14T10:16:08.832Z,2.80
2023-05-14T10:18:39.390Z,2.60
2023-05-14T10:21:07.626Z,3.67
2023-05-14T10:23:37.800Z,2.80
2023-05-14T10:26:08.049Z,2.60
2023-05-14T10:28:35.578Z,3.83
2023-05-14T10:31:02.224Z,2.97
2023-05-14T10:33:29.799Z,3.30
2023-05-14T10:36:14.840Z,3.90
2023-05-14T10:38:42.496Z,3.23
2023-05-14T10:41:13.002Z,3.10
2023-05-14T10:43:40.267Z,2.90
2023-05-14T10:46:07.235Z,3.17
2023-05-14T10:48:34.130Z,3.70
2023-05-14T10:51:01.290Z,3.50
2023-05-14T10:53:46.214Z,3.80
2023-05-14T10:56:13.557Z,3.47
2023-05-14T10:58:41.784Z,3.47
2023-05-14T11:01:08.943Z,3.17
2023-05-14T11:03:39.683Z,3.43
2023-05-14T11:06:06.896Z,3.40
2023-05-14T11:08:33.807Z,2.90
2023-05-14T11:11:00.546Z,2.80
2023-05-14T11:13:27.193Z,2.73
2023-05-14T11:15:54.090Z,3.27
2023-05-14T11:18:30.597Z,2.77
2023-05-14T11:21:00.487Z,3.10
2023-05-14T11:23:28.067Z,2.90
2023-05-14T11:25:56.199Z,3.40
2023-05-14T11:28:22.997Z,3.90
2023-05-14T11:30:50.299Z,3.90
2023-05-14T11:33:17.286Z,3.83
2023-05-14T11:35:45.605Z,4.17
2023-05-14T11:38:19.961Z,3.97
2023-05-14T11:40:56.379Z,4.00
2023-05-14T11:43:29.610Z,4.17
2023-05-14T11:45:56.896Z,4.07
2023-05-14T11:48:23.702Z,4.20
2023-05-14T11:50:52.043Z,3.90
2023-05-14T11:53:19.128Z,3.40
2023-05-14T11:55:47.232Z,3.03
2023-05-14T11:58:33.858Z,2.97
2023-05-14T12:01:04.054Z,3.13
2023-05-14T12:03:31.803Z,3.33
2023-05-14T12:05:59.853Z,3.20
2023-05-14T12:08:27.201Z,2.83
2023-05-14T12:10:54.154Z,2.90
2023-05-14T12:13:22.051Z,2.80
2023-05-14T12:15:49.461Z,3.00
2023-05-14T12:18:23.883Z,2.60
2023-05-14T12:20:52.433Z,2.93
2023-05-14T12:23:34.095Z,2.90
2023-05-14T12:26:06.262Z,3.20
2023-05-14T12:28:35.348Z,3.30
2023-05-14T12:31:03.862Z,3.63
2023-05-14T12:33:30.635Z,3.60
2023-05-14T12:36:19.799Z,3.60
2023-05-14T12:38:49.572Z,3.80
2023-05-14T12:41:17.426Z,3.40
2023-05-14T12:43:44.881Z,3.80
2023-05-14T12:46:11.486Z,3.80
2023-05-14T12:48:38.201Z,3.63
2023-05-14T12:51:04.814Z,3.57
2023-05-14T12:53:31.568Z,3.60
2023-05-14T12:55:59.513Z,3.60
2023-05-14T12:58:26.464Z,3.33
2023-05-14T13:00:53.070Z,3.27
2023-05-14T13:03:25.120Z,4.03
2023-05-14T13:05:52.757Z,3.47
2023-05-14T13:08:21.993Z,3.53
2023-05-14T13:10:48.759Z,3.47
2023-05-14T13:13:15.672Z,3.40
2023-05-14T13:15:43.245Z,3.93
2023-05-14T13:18:14.172Z,3.30
2023-05-14T13:20:43.089Z,3.50
2023-05-14T13:23:10.043Z,3.10
2023-05-14T13:25:41.076Z,3.50
2023-05-14T13:28:08.497Z,3.80
2023-05-14T13:30:35.240Z,3.33
2023-05-14T13:33:02.270Z,3.00
2023-05-14T13:35:29.050Z,3.50
2023-05-14T13:37:58.026Z,3.63
2023-05-14T13:40:26.125Z,4.30
2023-05-14T13:42:52.980Z,4.20
2023-05-14T13:45:20.020Z,4.17
2023-05-14T13:47:47.474Z,3.93
2023-05-14T13:50:15.354Z,3.83
2023-05-14T13:52:42.439Z,3.47
2023-05-14T13:55:09.810Z,3.27
2023-05-14T13:57:37.774Z,3.50
2023-05-14T14:00:06.146Z,3.13
2023-05-14T14:02:34.381Z,3.33
2023-05-14T14:05:01.319Z,3.17
2023-05-14T14:07:35.161Z,3.50
2023-05-14T14:10:02.367Z,3.47
2023-05-14T14:12:29.131Z,2.60
2023-05-14T14:14:56.315Z,2.10
2023-05-14T14:17:23.093Z,2.40
2023-05-14T14:19:49.875Z,2.60
2023-05-14T14:22:22.823Z,2.90
2023-05-14T14:24:50.457Z,2.60
2023-05-14T14:27:17.216Z,2.30
2023-05-14T14:29:44.052Z,2.40
2023-05-14T14:32:10.653Z,2.10
2023-05-14T14:34:37.478Z,2.20
2023-05-14T14:37:04.391Z,2.50
2023-05-14T14:39:32.380Z,2.47
2023-05-14T14:41:58.999Z,2.23
2023-05-14T14:44:31.117Z,2.70
2023-05-14T14:46:57.982Z,2.67
2023-05-14T14:49:24.629Z,3.00
2023-05-14T14:51:51.822Z,2.83
2023-05-14T14:54:18.627Z,2.97
2023-05-14T14:56:46.257Z,2.67
2023-05-14T14:59:13.163Z,3.03
2023-05-14T15:01:39.924Z,2.80
2023-05-14T15:04:07.114Z,2.67
2023-05-14T15:06:34.037Z,2.93
2023-05-14T15:09:00.978Z,3.17
2023-05-14T15:11:30.878Z,3.27
2023-05-14T15:13:57.739Z,2.63
2023-05-14T15:16:25.459Z,3.30
2023-05-14T15:18:52.197Z,3.10
2023-05-14T15:21:22.085Z,2.73
2023-05-14T15:23:49.004Z,2.67
2023-05-14T15:26:15.624Z,2.90
2023-05-14T15:28:44.012Z,2.83
2023-05-14T15:31:10.709Z,3.53
2023-05-14T15:33:37.879Z,3.30
2023-05-14T15:36:04.835Z,3.07
2023-05-14T15:38:31.640Z,3.37
2023-05-14T15:40:58.458Z,2.73
2023-05-14T15:43:27.354Z,2.70
2023-05-14T15:45:54.287Z,2.63
2023-05-14T15:48:21.045Z,2.50
2023-05-14T15:50:51.706Z,2.93
2023-05-14T15:53:18.576Z,2.93
2023-05-14T15:55:45.214Z,2.73
2023-05-14T15:58:14.134Z,2.93
2023-05-14T16:00:41.089Z,2.70
2023-05-14T16:03:07.845Z,3.10
2023-05-14T16:05:35.858Z,5.63
2023-05-14T16:08:03.844Z,3.80
2023-05-14T16:10:30.546Z,3.33
2023-05-14T16:12:57.260Z,2.70
2023-05-14T16:15:24.009Z,2.97
2023-05-14T16:17:50.779Z,3.00
2023-05-14T16:20:17.589Z,4.13
2023-05-14T16:22:45.217Z,3.23
2023-05-14T16:25:12.351Z,4.17
2023-05-14T16:27:41.114Z,3.50
2023-05-14T16:30:08.098Z,2.87
2023-05-14T16:32:38.356Z,3.23
2023-05-14T16:35:05.238Z,2.90
2023-05-14T16:37:32.036Z,2.60
2023-05-14T16:39:58.770Z,2.50
2023-05-14T16:42:26.723Z,2.40
2023-05-14T16:44:53.514Z,2.20
2023-05-14T16:47:21.199Z,2.43
2023-05-14T16:49:47.929Z,2.30
2023-05-14T16:52:15.501Z,2.70
2023-05-14T16:54:42.289Z,2.50
2023-05-14T16:57:10.479Z,2.60
2023-05-14T16:59:40.285Z,2.60
2023-05-14T17:02:07.657Z,2.47
2023-05-14T17:04:38.945Z,2.33
2023-05-14T17:07:06.185Z,3.63
2023-05-14T17:09:33.473Z,2.90
2023-05-14T17:12:02.335Z,3.03
2023-05-14T17:14:29.136Z,3.07
2023-05-14T17:16:56.136Z,2.87
2023-05-14T17:19:22.983Z,2.80
2023-05-14T17:21:49.708Z,2.50
2023-05-14T17:24:16.675Z,2.47
2023-05-14T17:26:44.165Z,2.50
2023-05-14T17:29:11.074Z,2.53
2023-05-14T17:31:37.844Z,2.60
2023-05-14T17:34:07.300Z,2.60
2023-05-14T17:36:36.754Z,2.20
2023-05-14T17:39:03.398Z,2.77
2023-05-14T17:41:33.677Z,2.43
2023-05-14T17:44:00.385Z,3.00
2023-05-14T17:46:28.614Z,3.13
2023-05-14T17:48:56.149Z,2.80
2023-05-14T17:51:22.824Z,2.83
2023-05-14T17:53:49.377Z,2.80
2023-05-14T17:56:18.239Z,2.20
2023-05-14T17:58:45.429Z,2.60
2023-05-14T18:01:16.124Z,2.90
2023-05-14T18:03:42.966Z,2.87
2023-05-14T18:06:09.724Z,2.60
2023-05-14T18:08:36.514Z,3.00
2023-05-14T18:11:04.328Z,3.10
2023-05-14T18:13:32.133Z,3.17
2023-05-14T18:16:00.971Z,3.10
2023-05-14T18:18:27.711Z,3.00
2023-05-14T18:20:54.465Z,3.00
2023-05-14T18:23:22.733Z,2.83
2023-05-14T18:25:49.962Z,3.20
2023-05-14T18:28:16.718Z,2.70
2023-05-14T18:30:45.547Z,2.90
2023-05-14T18:33:13.188Z,2.90
2023-05-14T18:35:41.665Z,2.63
2023-05-14T18:38:09.924Z,2.70
2023-05-14T18:40:37.842Z,2.93
2023-05-14T18:43:04.904Z,2.53
2023-05-14T18:45:33.023Z,3.10
2023-05-14T18:48:00.086Z,2.70
2023-05-14T18:50:27.181Z,2.93
2023-05-14T18:52:54.279Z,2.73
2023-05-14T18:55:21.972Z,3.00
2023-05-14T18:57:48.910Z,8.73
2023-05-14T19:00:17.404Z,19.73
2023-05-14T19:02:45.315Z,46.87
2023-05-14T19:05:15.337Z,36.33
2023-05-14T19:07:46.335Z,9.83
2023-05-14T19:10:14.012Z,12.63
2023-05-14T19:12:40.722Z,19.83
2023-05-14T19:15:08.646Z,19.63
2023-05-14T19:17:35.358Z,16.80
2023-05-14T19:20:04.209Z,11.03
2023-05-14T19:22:34.497Z,9.20
2023-05-14T19:25:01.815Z,6.50
2023-05-14T19:27:28.893Z,5.13
2023-05-14T19:29:55.690Z,4.00
2023-05-14T19:32:23.523Z,4.10
2023-05-14T19:34:51.500Z,4.60
2023-05-14T19:37:18.911Z,4.10
2023-05-14T19:39:45.677Z,4.60
2023-05-14T19:42:15.093Z,5.50
2023-05-14T19:44:43.451Z,5.17
2023-05-14T19:47:10.229Z,4.73
2023-05-14T19:49:38.154Z,6.43
2023-05-14T19:52:04.980Z,6.47
2023-05-14T19:54:31.723Z,5.80
2023-05-14T19:56:58.809Z,5.10
2023-05-14T19:59:25.875Z,5.87
2023-05-14T20:01:54.678Z,6.17
2023-05-14T20:04:22.590Z,6.13
2023-05-14T20:06:54.644Z,6.20
2023-05-14T20:09:22.408Z,5.70
2023-05-14T20:11:49.479Z,4.73
2023-05-14T20:14:18.277Z,6.53
2023-05-14T20:16:47.719Z,5.03
2023-05-14T20:19:14.811Z,4.70
2023-05-14T20:21:41.631Z,5.20
2023-05-14T20:24:10.018Z,5.40
2023-05-14T20:26:36.780Z,5.33
2023-05-14T20:29:13.664Z,5.90
2023-05-14T20:31:41.579Z,5.47
2023-05-14T20:34:08.956Z,6.50
2023-05-14T20:36:36.173Z,7.73
2023-05-14T20:39:03.070Z,6.37
2023-05-14T20:41:29.898Z,6.17
2023-05-14T20:43:57.919Z,6.40
2023-05-14T20:46:25.848Z,6.07
2023-05-14T20:48:54.177Z,5.90
2023-05-14T20:51:21.720Z,5.40
2023-05-14T20:53:48.416Z,6.30
2023-05-14T20:56:15.308Z,5.77
2023-05-14T20:58:43.942Z,6.17
2023-05-14T21:01:11.126Z,5.83
2023-05-14T21:03:37.969Z,6.00
2023-05-14T21:06:05.350Z,6.27
2023-05-14T21:08:35.546Z,6.87
2023-05-14T21:11:02.487Z,6.17
2023-05-14T21:13:32.560Z,8.43
2023-05-14T21:16:00.474Z,7.37
2023-05-14T21:18:31.766Z,7.33
2023-05-14T21:20:59.201Z,9.00
2023-05-14T21:23:25.908Z,9.07
2023-05-14T21:25:56.038Z,11.37
2023-05-14T21:28:22.701Z,11.27
2023-05-14T21:30:50.069Z,8.67
2023-05-14T21:33:18.398Z,8.07
2023-05-14T21:35:44.949Z,7.00
2023-05-14T21:38:11.631Z,6.80
2023-05-14T21:40:38.252Z,7.20
2023-05-14T21:43:05.095Z,7.17
2023-05-14T21:45:31.926Z,7.20
2023-05-14T21:48:02.956Z,7.00
2023-05-14T21:50:32.422Z,8.63
2023-05-14T21:52:59.548Z,6.47
2023-05-14T21:55:28.272Z,7.30
2023-05-14T21:57:54.796Z,7.50
2023-05-14T22:00:24.149Z,7.33
2023-05-14T22:02:52.042Z,8.90
2023-05-14T22:05:19.061Z,8.03
2023-05-14T22:07:45.785Z,7.33
2023-05-14T22:10:12.662Z,7.10
2023-05-14T22:12:39.453Z,7.17
2023-05-14T22:15:06.444Z,7.43
2023-05-14T22:17:34.515Z,7.27
2023-05-14T22:20:01.593Z,7.40
2023-05-14T22:22:28.160Z,7.70
2023-05-14T22:24:55.736Z,6.80
2023-05-14T22:27:22.795Z,6.50
2023-05-14T22:29:50.188Z,7.37
2023-05-14T22:32:17.551Z,7.33
2023-05-14T22:34:44.056Z,7.20
2023-05-14T22:37:10.752Z,7.30
2023-05-14T22:39:37.369Z,7.00
2023-05-14T22:42:04.060Z,7.37
2023-05-14T22:44:30.598Z,7.43
2023-05-14T22:46:57.235Z,7.30
2023-05-14T22:49:24.063Z,7.00
2023-05-14T22:51:54.140Z,7.73
2023-05-14T22:54:21.081Z,7.23
2023-05-14T22:56:47.704Z,7.30
2023-05-14T22:59:14.240Z,7.00
2023-05-14T23:01:41.059Z,7.30
2023-05-14T23:04:08.607Z,6.77
2023-05-14T23:06:35.147Z,7.07
2023-05-14T23:09:01.720Z,7.10
2023-05-14T23:11:28.559Z,6.83
2023-05-14T23:13:55.152Z,7.30
2023-05-14T23:16:21.828Z,7.13
2023-05-14T23:18:48.632Z,7.20
2023-05-14T23:21:15.361Z,7.07
2023-05-14T23:23:41.919Z,7.37
2023-05-14T23:26:08.446Z,7.53
2023-05-14T23:28:34.985Z,7.67
2023-05-14T23:31:02.361Z,7.70
2023-05-14T23:33:28.970Z,7.73
2023-05-14T23:35:55.510Z,7.43
2023-05-14T23:38:22.149Z,7.17
2023-05-14T23:40:48.844Z,6.80
2023-05-14T23:43:15.409Z,7.60
2023-05-14T23:45:44.184Z,7.30
2023-05-14T23:48:11.610Z,7.03
2023-05-14T23:50:38.670Z,7.37
2023-05-14T23:53:05.430Z,7.37
2023-05-14T23:55:32.028Z,7.40
2023-05-14T23:57:58.589Z,7.93
